Time;durP1;ratioP1;P1;durP2;ratioP2;P2;SDS_P1;SDS_P2;PMS_P1;PMS_P2;Temp;Humidity;BMP_temperature;BMP_pressure;BME280_temperature;BME280_humidity;BME280_pressure;Samples;Min_cycle;Max_cycle;Signal;HPM_P1;HPM_P2
2021/10/11 05:23:34;;;;;;;13.93;12.23;;;;;;;14.37;40.05;100739.48;1769255;79;28043;-62
2021/10/11 05:26:00;;;;;;;16.30;12.75;;;;;;;14.55;39.48;100734.76;1774140;78;21027;-63
2021/10/11 05:28:26;;;;;;;14.13;12.65;;;;;;;14.62;39.26;100731.44;1793781;78;21193;-64
2021/10/11 05:30:54;;;;;;;12.88;11.48;;;;;;;14.64;39.15;100738.78;1788450;78;21536;-62
2021/10/11 05:33:22;;;;;;;14.73;12.28;;;;;;;14.63;39.10;100733.94;1789120;79;21131;-64
2021/10/11 05:35:50;;;;;;;14.00;12.50;;;;;;;14.63;39.03;100733.11;1791901;79;20955;-64
2021/10/11 05:38:16;;;;;;;13.85;11.48;;;;;;;14.63;39.03;100729.10;1757438;80;21115;-64
2021/10/11 05:40:43;;;;;;;13.83;11.90;;;;;;;14.62;38.96;100726.94;1774096;79;21128;-63
2021/10/11 05:43:09;;;;;;;15.80;11.43;;;;;;;14.62;38.96;100726.94;1772365;79;21114;-64
2021/10/11 05:45:36;;;;;;;14.03;12.18;;;;;;;14.61;38.94;100731.94;1773118;79;21125;-64
2021/10/11 05:48:03;;;;;;;14.85;12.20;;;;;;;14.61;38.96;100743.15;1779367;79;21074;-65
2021/10/11 05:50:30;;;;;;;14.90;12.25;;;;;;;14.61;38.94;100742.64;1765328;79;21091;-63
2021/10/11 05:52:58;;;;;;;14.70;12.03;;;;;;;14.60;38.93;100736.95;1771206;79;21155;-64
2021/10/11 05:55:26;;;;;;;14.85;12.00;;;;;;;14.60;38.93;100734.27;1782937;79;21022;-64
2021/10/11 05:57:52;;;;;;;15.18;12.70;;;;;;;14.61;38.96;100731.11;1777884;79;21517;-64
2021/10/11 06:00:18;;;;;;;13.85;11.57;;;;;;;14.60;38.93;100732.11;1789219;79;21040;-65
2021/10/11 06:02:45;;;;;;;13.20;11.25;;;;;;;14.62;38.91;100734.11;1772807;80;21084;-65
2021/10/11 06:05:11;;;;;;;13.22;11.83;;;;;;;14.62;38.90;100736.30;1767616;79;21122;-65
2021/10/11 06:07:38;;;;;;;20.95;12.10;;;;;;;14.62;38.91;100734.97;1787230;79;21056;-66
2021/10/11 06:10:06;;;;;;;15.95;12.63;;;;;;;14.64;38.90;100740.98;1784749;79;21580;-65
2021/10/11 06:12:32;;;;;;;14.80;11.48;;;;;;;14.65;38.90;100741.80;1801463;78;21051;-64
2021/10/11 06:15:01;;;;;;;14.03;11.73;;;;;;;14.66;38.90;100746.13;1800074;78;21051;-64
2021/10/11 06:17:27;;;;;;;13.50;11.57;;;;;;;14.67;38.89;100744.63;1797690;78;21190;-64
2021/10/11 06:19:54;;;;;;;16.90;13.00;;;;;;;14.69;38.87;100747.97;1797791;79;21047;-64
2021/10/11 06:22:21;;;;;;;14.68;10.93;;;;;;;14.71;38.86;100749.96;1802587;78;21119;-64
2021/10/11 06:24:47;;;;;;;14.68;12.07;;;;;;;14.73;38.86;100753.30;1804890;79;21026;-64
2021/10/11 06:27:13;;;;;;;12.68;11.30;;;;;;;14.75;38.84;100753.96;1809220;78;21091;-64
2021/10/11 06:29:40;;;;;;;13.85;11.60;;;;;;;14.78;38.84;100754.66;1806285;79;21120;-65
2021/10/11 06:32:07;;;;;;;13.43;11.63;;;;;;;14.80;38.80;100749.45;1812491;79;21028;-66
2021/10/11 06:34:33;;;;;;;14.38;12.05;;;;;;;14.82;38.75;100745.28;1806404;78;21512;-65
2021/10/11 06:37:00;;;;;;;14.83;12.47;;;;;;;14.86;38.75;100745.27;1796674;78;21056;-63
2021/10/11 06:39:26;;;;;;;14.98;12.80;;;;;;;14.88;38.72;100741.91;1807446;78;21094;-64
2021/10/11 06:41:52;;;;;;;13.93;12.00;;;;;;;14.90;38.70;100739.39;1806416;78;21091;-64
2021/10/11 06:44:18;;;;;;;13.48;11.90;;;;;;;14.95;38.68;100738.89;1811174;78;21071;-64
2021/10/11 06:46:46;;;;;;;15.38;12.03;;;;;;;14.96;38.66;100727.16;1806248;79;20997;-63
2021/10/11 06:49:13;;;;;;;13.88;10.93;;;;;;;14.99;38.63;100728.17;1797127;78;21595;-64
2021/10/11 06:51:39;;;;;;;13.38;11.97;;;;;;;15.02;38.60;100735.00;1797646;79;21492;-63
2021/10/11 06:54:06;;;;;;;14.15;12.63;;;;;;;15.04;38.58;100727.12;1796955;79;21274;-64
2021/10/11 06:56:33;;;;;;;13.58;12.18;;;;;;;15.07;38.56;100725.45;1801986;78;21066;-63
2021/10/11 06:58:59;;;;;;;13.08;11.70;;;;;;;15.10;38.52;100720.25;1802314;79;21012;-63
2021/10/11 07:01:27;;;;;;;16.48;12.85;;;;;;;15.12;38.51;100713.73;1798809;79;21051;-64
2021/10/11 07:03:53;;;;;;;15.30;12.45;;;;;;;15.16;38.49;100709.35;1804072;78;21067;-64
2021/10/11 07:06:21;;;;;;;13.28;11.73;;;;;;;15.19;38.47;100707.68;1800452;79;21973;-64
2021/10/11 07:08:48;;;;;;;14.05;12.10;;;;;;;15.21;38.43;100707.00;1793411;79;21014;-64
2021/10/11 07:11:15;;;;;;;13.08;11.68;;;;;;;15.24;38.41;100705.30;1792884;78;21044;-63
2021/10/11 07:13:41;;;;;;;15.70;12.73;;;;;;;15.28;38.39;100698.61;1800368;78;21013;-63
2021/10/11 07:16:09;;;;;;;13.58;11.55;;;;;;;15.31;38.38;100695.56;1777767;78;21017;-63
2021/10/11 07:18:37;;;;;;;12.65;11.35;;;;;;;15.33;38.34;100688.19;1814153;78;21133;-64
2021/10/11 07:21:06;;;;;;;13.78;12.00;;;;;;;15.37;38.31;100694.02;1793576;78;21047;-65
2021/10/11 07:23:33;;;;;;;13.75;12.20;;;;;;;15.39;38.26;100693.34;1809450;78;21527;-64
2021/10/11 07:26:00;;;;;;;13.22;11.45;;;;;;;15.41;38.24;100692.14;1794750;79;21556;-63
2021/10/11 07:28:27;;;;;;;13.72;12.25;;;;;;;15.45;38.21;100695.31;1796667;78;21550;-64
2021/10/11 07:30:53;;;;;;;13.58;11.85;;;;;;;15.49;38.20;100688.10;1792060;78;21274;-62
2021/10/11 07:33:20;;;;;;;14.33;12.03;;;;;;;15.51;38.17;100682.06;1793675;78;21067;-65
2021/10/11 07:35:47;;;;;;;15.15;11.57;;;;;;;15.55;38.12;100691.92;1802544;78;21071;-64
2021/10/11 07:38:13;;;;;;;15.20;12.47;;;;;;;15.59;38.11;100689.20;1807348;78;21073;-64
2021/10/11 07:40:39;;;;;;;15.55;12.65;;;;;;;15.62;38.09;100682.66;1783655;80;21023;-65
2021/10/11 07:43:06;;;;;;;13.50;11.78;;;;;;;15.65;38.05;100684.98;1773505;78;22267;-65
2021/10/11 07:45:32;;;;;;;14.38;11.68;;;;;;;15.68;38.04;100680.59;1758167;81;21088;-63
2021/10/11 07:47:58;;;;;;;13.88;11.83;;;;;;;15.70;38.01;100675.41;1793648;78;21150;-63
2021/10/11 07:50:25;;;;;;;13.43;11.73;;;;;;;15.74;37.97;100671.87;1792953;78;21531;-64
2021/10/11 07:52:51;;;;;;;14.53;12.00;;;;;;;15.77;37.98;100674.20;1799884;78;21017;-63
2021/10/11 07:55:18;;;;;;;13.95;12.30;;;;;;;15.80;37.96;100669.84;1799308;78;21127;-64
2021/10/11 07:57:44;;;;;;;12.70;11.10;;;;;;;15.84;37.96;100674.30;1794011;78;21027;-64
2021/10/11 08:00:14;;;;;;;12.98;11.65;;;;;;;15.87;37.94;100677.46;1799310;79;21110;-63
2021/10/11 08:02:41;;;;;;;12.47;10.23;;;;;;;15.90;37.93;100670.41;1798937;79;21678;-64
2021/10/11 08:05:09;;;;;;;12.25;10.95;;;;;;;15.94;37.91;100674.91;1804703;78;21009;-64
2021/10/11 08:07:36;;;;;;;15.78;11.40;;;;;;;15.97;37.89;100668.34;1806925;78;22061;-63
2021/10/11 08:10:05;;;;;;;13.32;10.70;;;;;;;16.00;37.89;100662.64;1795298;78;21012;-63
2021/10/11 08:12:32;;;;;;;13.30;11.35;;;;;;;16.03;37.87;100651.53;1826828;78;21005;-64
2021/10/11 08:14:58;;;;;;;12.60;10.82;;;;;;;16.06;37.87;100651.19;1816473;78;21055;-64
2021/10/11 08:17:24;;;;;;;14.68;11.53;;;;;;;16.09;37.85;100655.68;1812987;78;21043;-64
2021/10/11 08:19:51;;;;;;;13.68;11.15;;;;;;;16.15;37.87;100650.59;1805509;78;21042;-64
2021/10/11 08:22:20;;;;;;;14.35;11.53;;;;;;;16.19;37.82;100649.23;1797314;78;20996;-64
2021/10/11 08:24:51;;;;;;;12.43;10.53;;;;;;;16.22;37.84;100646.99;1786224;79;21036;-63
2021/10/11 08:27:18;;;;;;;12.78;11.45;;;;;;;16.28;37.86;100645.43;1768510;80;21056;-63
2021/10/11 08:29:53;;;;;;;12.95;10.75;;;;;;;16.32;37.85;100649.41;1758940;80;21052;-63
2021/10/11 08:32:22;;;;;;;14.75;12.28;;;;;;;16.37;37.78;100646.19;1756252;80;21313;-63
2021/10/11 08:34:50;;;;;;;13.10;10.98;;;;;;;16.42;37.76;100641.13;1753654;81;21024;-64
2021/10/11 08:37:17;;;;;;;13.22;11.18;;;;;;;16.47;37.77;100631.99;1764051;80;21068;-63
2021/10/11 08:39:44;;;;;;;13.03;10.50;;;;;;;16.53;37.74;100632.59;1775764;80;22188;-63
2021/10/11 08:42:11;;;;;;;13.13;11.00;;;;;;;16.57;37.68;100629.03;1767405;80;21142;-64
2021/10/11 08:44:39;;;;;;;13.35;11.18;;;;;;;16.64;37.60;100626.76;1748429;80;21197;-62
2021/10/11 08:47:09;;;;;;;12.82;10.82;;;;;;;16.69;37.58;100622.20;1769404;78;21284;-64
2021/10/11 08:49:42;;;;;;;17.10;11.38;;;;;;;16.76;37.50;100615.55;1759998;80;21075;-65
2021/10/11 08:52:09;;;;;;;11.78;9.95;;;;;;;16.82;37.42;100613.49;1786433;79;21553;-63
2021/10/11 08:54:37;;;;;;;12.73;10.70;;;;;;;16.89;37.39;100613.89;1787665;78;21161;-63
2021/10/11 08:57:07;;;;;;;12.05;10.53;;;;;;;16.96;37.36;100607.77;1789716;78;21115;-64
2021/10/11 08:59:33;;;;;;;10.93;9.75;;;;;;;17.02;37.34;100603.83;1787372;78;21017;-63
2021/10/11 09:02:06;;;;;;;12.95;10.65;;;;;;;17.10;37.29;100601.55;1766249;80;21075;-65
2021/10/11 09:04:53;;;;;;;11.30;9.45;;;;;;;17.17;37.24;100598.92;1773074;78;21539;-63
2021/10/11 09:07:26;;;;;;;11.18;9.10;;;;;;;17.24;37.17;100593.94;1747551;81;21481;-64
2021/10/11 09:09:53;;;;;;;12.25;10.55;;;;;;;17.33;37.15;100593.84;1764240;80;21915;-63
2021/10/11 09:12:26;;;;;;;12.40;10.88;;;;;;;17.39;37.13;100591.20;1768729;80;21105;-63
2021/10/11 09:15:07;;;;;;;12.03;9.73;;;;;;;17.47;37.10;100591.06;1764361;79;21039;-65
2021/10/11 09:17:37;;;;;;;11.22;10.03;;;;;;;17.55;37.04;100586.07;1777252;78;21316;-63
2021/10/11 09:20:11;;;;;;;10.55;8.90;;;;;;;17.63;36.99;100584.58;1771368;80;21545;-62
2021/10/11 09:22:39;;;;;;;11.38;10.10;;;;;;;17.71;36.95;100582.27;1764700;80;21768;-62
2021/10/11 09:25:07;;;;;;;13.20;9.98;;;;;;;17.79;36.91;100577.27;1778677;78;21817;-64
2021/10/11 09:27:53;;;;;;;11.22;9.93;;;;;;;17.87;36.88;100568.59;1790564;78;21023;-63
2021/10/11 09:30:29;;;;;;;11.10;8.98;;;;;;;17.95;36.85;100567.61;1750505;79;21558;-64
2021/10/11 09:33:16;;;;;;;10.35;9.18;;;;;;;18.02;36.81;100563.12;1754188;81;21016;-64
2021/10/11 09:35:44;;;;;;;11.25;9.18;;;;;;;18.13;36.80;100560.38;1781734;78;21811;-65
2021/10/11 09:38:25;;;;;;;10.68;9.48;;;;;;;18.22;36.73;100549.78;1794018;79;21619;-64
2021/10/11 09:40:56;;;;;;;10.28;9.13;;;;;;;18.32;36.71;100552.63;1784502;79;21199;-62
2021/10/11 09:43:26;;;;;;;9.43;8.33;;;;;;;18.41;36.68;100550.09;1745153;81;21100;-65
2021/10/11 09:45:53;;;;;;;10.23;9.13;;;;;;;18.50;36.65;100550.21;1787822;78;21060;-64
2021/10/11 09:48:20;;;;;;;10.05;8.78;;;;;;;18.58;36.56;100543.34;1767053;79;22267;-64
2021/10/11 09:50:46;;;;;;;10.28;9.08;;;;;;;18.67;36.51;100544.80;1792296;78;21074;-63
2021/10/11 09:53:15;;;;;;;10.93;9.33;;;;;;;18.78;36.42;100547.95;1766434;79;21024;-63
2021/10/11 09:55:43;;;;;;;11.65;8.48;;;;;;;18.85;36.43;100537.55;1769231;79;21087;-63
2021/10/11 09:58:10;;;;;;;9.43;8.40;;;;;;;18.96;36.39;100542.02;1775325;78;21009;-63
2021/10/11 10:00:38;;;;;;;9.58;8.25;;;;;;;19.04;36.36;100533.75;1763874;80;21088;-63
2021/10/11 10:03:05;;;;;;;9.25;8.08;;;;;;;19.14;36.32;100530.66;1768815;79;21068;-62
2021/10/11 10:05:45;;;;;;;8.78;7.83;;;;;;;19.23;36.31;100530.25;1750803;81;21762;-63
2021/10/11 10:08:16;;;;;;;9.28;8.28;;;;;;;19.33;36.27;100524.98;1760054;79;21064;-62
2021/10/11 10:10:42;;;;;;;9.15;8.25;;;;;;;19.42;36.24;100521.87;1762970;81;21020;-63
2021/10/11 10:13:16;;;;;;;9.30;8.05;;;;;;;19.51;36.20;100513.57;1763688;79;21148;-62
2021/10/11 10:15:42;;;;;;;9.58;7.72;;;;;;;19.61;36.14;100513.47;1789422;78;21055;-66
2021/10/11 10:18:11;;;;;;;9.70;8.30;;;;;;;19.72;36.06;100512.55;1794191;78;21519;-64
2021/10/11 10:20:57;;;;;;;8.58;7.78;;;;;;;19.81;36.06;100507.25;1753803;81;20997;-61
2021/10/11 10:23:29;;;;;;;8.73;7.83;;;;;;;19.91;35.97;100505.47;1757091;80;21729;-60
2021/10/11 10:26:00;;;;;;;10.43;7.62;;;;;;;20.00;35.92;100496.94;1751580;81;21163;-62
2021/10/11 10:28:43;;;;;;;9.30;7.58;;;;;;;20.08;35.85;100497.23;1744968;81;21100;-61
2021/10/11 10:31:09;;;;;;;9.58;7.72;;;;;;;20.19;35.78;100492.53;1717939;82;21037;-62
2021/10/11 10:33:41;;;;;;;10.25;8.13;;;;;;;20.30;35.76;100496.94;1718786;82;21742;-60
2021/10/11 10:36:25;;;;;;;8.80;7.37;;;;;;;20.39;35.69;100491.62;1760901;80;21083;-62
2021/10/11 10:39:07;;;;;;;8.53;7.62;;;;;;;20.49;35.61;100493.33;1763220;79;21304;-64
2021/10/11 10:41:35;;;;;;;7.92;7.12;;;;;;;20.59;35.56;100483.41;1720220;82;21049;-62
2021/10/11 10:44:20;;;;;;;8.23;7.42;;;;;;;20.69;35.47;100484.35;1756486;79;21013;-62
2021/10/11 10:46:55;;;;;;;8.68;7.33;;;;;;;20.78;35.42;100471.73;1759817;79;21565;-62
2021/10/11 10:49:27;;;;;;;9.23;6.92;;;;;;;20.89;35.35;100470.19;1759219;79;22019;-60
2021/10/11 10:51:53;;;;;;;8.43;7.50;;;;;;;20.99;35.30;100467.00;1752620;79;22149;-63
2021/10/11 10:54:20;;;;;;;8.65;6.95;;;;;;;21.10;35.22;100459.54;1759201;79;21051;-61
2021/10/11 10:56:53;;;;;;;7.95;7.12;;;;;;;21.21;35.17;100456.66;1763933;80;21130;-62
2021/10/11 10:59:25;;;;;;;7.28;6.58;;;;;;;21.30;35.11;100452.61;1756753;80;21487;-62
2021/10/11 11:02:06;;;;;;;8.33;7.50;;;;;;;21.41;35.03;100447.83;1761813;79;21071;-61
2021/10/11 11:04:33;;;;;;;7.37;6.62;;;;;;;21.52;34.97;100437.39;1759456;80;21164;-61
2021/10/11 11:07:04;;;;;;;7.42;6.67;;;;;;;21.62;34.90;100442.28;1732642;82;21115;-62
2021/10/11 11:09:43;;;;;;;7.90;7.12;;;;;;;21.72;34.83;100433.12;1748150;81;21060;-62
2021/10/11 11:12:12;;;;;;;7.33;6.62;;;;;;;21.83;34.75;100428.31;1768270;80;21126;-63
2021/10/11 11:14:45;;;;;;;7.65;6.28;;;;;;;21.93;34.64;100427.78;1739782;81;21052;-62
2021/10/11 11:17:16;;;;;;;7.40;6.55;;;;;;;22.02;34.59;100421.02;1739875;80;21041;-64
2021/10/11 11:19:43;;;;;;;7.15;6.40;;;;;;;22.12;34.50;100417.78;1762205;79;21062;-62
2021/10/11 11:22:14;;;;;;;6.58;5.97;;;;;;;22.22;34.44;100409.11;1747436;80;21023;-63
2021/10/11 11:24:50;;;;;;;6.62;5.92;;;;;;;22.31;34.40;100407.75;1762014;79;21136;-61
2021/10/11 11:27:33;;;;;;;6.80;6.20;;;;;;;22.41;34.30;100409.90;1797813;79;21075;-62
2021/10/11 11:30:10;;;;;;;7.15;6.08;;;;;;;22.49;34.22;100402.30;1791769;80;21146;-62
2021/10/11 11:32:56;;;;;;;7.25;6.12;;;;;;;22.60;34.12;100394.42;1763356;79;21606;-61
2021/10/11 11:35:29;;;;;;;6.47;5.80;;;;;;;22.67;34.03;100385.14;1761273;80;21642;-62
2021/10/11 11:37:58;;;;;;;7.05;5.90;;;;;;;22.78;33.94;100377.58;1793455;78;26952;-61
2021/10/11 11:40:28;;;;;;;6.53;5.80;;;;;;;22.90;33.83;100378.94;1804725;78;21083;-61
2021/10/11 11:42:55;;;;;;;6.03;5.42;;;;;;;23.00;33.77;100364.81;1801539;78;21088;-62
2021/10/11 11:45:26;;;;;;;6.40;5.80;;;;;;;23.11;33.74;100365.38;1782165;78;21107;-62
2021/10/11 11:47:58;;;;;;;7.60;5.72;;;;;;;23.22;33.67;100363.73;1795648;78;21033;-62
2021/10/11 11:50:24;;;;;;;6.85;6.20;;;;;;;23.33;33.59;100357.48;1792234;78;21613;-60
2021/10/11 11:53:09;;;;;;;6.28;5.67;;;;;;;23.44;33.55;100359.88;1801811;78;21067;-61
2021/10/11 11:55:37;;;;;;;6.15;5.55;;;;;;;23.54;33.45;100351.95;1787499;78;21135;-61
2021/10/11 11:58:04;;;;;;;6.12;5.53;;;;;;;23.66;33.39;100350.59;1800764;78;21232;-60
2021/10/11 12:00:31;;;;;;;6.78;6.03;;;;;;;23.78;33.31;100341.56;1800824;78;21025;-62
2021/10/11 12:02:59;;;;;;;6.50;5.90;;;;;;;23.92;33.23;100345.16;1801361;78;20979;-60
2021/10/11 12:05:26;;;;;;;6.20;5.60;;;;;;;24.17;33.00;100343.18;1806638;78;21021;-61
2021/10/11 12:07:52;;;;;;;6.40;5.53;;;;;;;24.49;32.75;100339.38;1804628;78;21200;-63
2021/10/11 12:10:22;;;;;;;6.00;5.40;;;;;;;24.84;32.38;100339.19;1790054;78;21114;-61
2021/10/11 12:13:00;;;;;;;6.17;5.58;;;;;;;25.18;32.01;100337.77;1798777;78;20988;-61
2021/10/11 12:15:28;;;;;;;6.03;5.45;;;;;;;25.35;31.69;100324.17;1798245;78;20987;-62
2021/10/11 12:18:07;;;;;;;5.20;4.70;;;;;;;25.65;31.44;100330.54;1799054;78;21048;-62
2021/10/11 12:20:48;;;;;;;5.15;4.65;;;;;;;25.82;31.22;100329.63;1798191;78;22021;-61
2021/10/11 12:23:15;;;;;;;6.20;5.70;;;;;;;25.96;31.01;100325.47;1803482;78;21478;-62
2021/10/11 12:25:43;;;;;;;5.97;5.10;;;;;;;26.14;30.83;100322.11;1802810;78;22250;-62
2021/10/11 12:28:18;;;;;;;5.62;5.12;;;;;;;26.34;30.61;100314.11;1796391;78;20995;-62
2021/10/11 12:30:47;;;;;;;5.65;5.15;;;;;;;26.57;30.37;100306.69;1799675;78;21039;-61
2021/10/11 12:33:17;;;;;;;5.65;5.15;;;;;;;26.80;30.12;100299.52;1807809;78;21505;-62
2021/10/11 12:35:46;;;;;;;4.75;4.28;;;;;;;26.92;29.96;100291.69;1777230;79;21005;-62
2021/10/11 12:38:15;;;;;;;5.15;4.60;;;;;;;26.91;29.93;100284.58;1777225;79;21052;-62
2021/10/11 12:40:43;;;;;;;5.03;4.53;;;;;;;26.85;29.96;100290.58;1805783;78;21024;-62
2021/10/11 12:43:15;;;;;;;5.30;4.80;;;;;;;26.73;30.04;100288.02;1795647;78;21008;-60
2021/10/11 12:45:42;;;;;;;5.22;4.72;;;;;;;26.62;30.15;100291.23;1795656;78;21095;-62
2021/10/11 12:48:08;;;;;;;4.58;4.17;;;;;;;26.51;30.28;100283.21;1795289;78;21510;-61
2021/10/11 12:50:35;;;;;;;5.72;5.03;;;;;;;26.41;30.42;100288.05;1782614;79;21049;-62
2021/10/11 12:53:01;;;;;;;4.97;4.47;;;;;;;26.31;30.53;100277.88;1782708;78;21068;-61
2021/10/11 12:55:30;;;;;;;5.42;4.87;;;;;;;26.24;30.66;100278.63;1759525;81;21083;-61
2021/10/11 12:58:05;;;;;;;5.35;4.30;;;;;;;26.15;30.81;100276.91;1788928;78;21106;-62
2021/10/11 13:00:33;;;;;;;4.80;4.40;;;;;;;26.08;30.90;100280.41;1777303;79;21131;-62
2021/10/11 13:03:00;;;;;;;4.45;4.05;;;;;;;26.00;31.03;100279.48;1796529;78;21368;-63
2021/10/11 13:05:26;;;;;;;5.00;4.25;;;;;;;25.93;31.18;100276.17;1800437;78;21365;-62
2021/10/11 13:07:53;;;;;;;5.00;4.50;;;;;;;25.84;31.28;100277.94;1795688;78;21048;-62
2021/10/11 13:10:20;;;;;;;4.30;3.95;;;;;;;25.75;31.40;100280.02;1791183;78;21189;-61
2021/10/11 13:12:46;;;;;;;4.30;3.90;;;;;;;25.62;31.47;100274.45;1794180;78;21049;-65
2021/10/11 13:15:13;;;;;;;4.87;4.37;;;;;;;25.49;31.60;100266.13;1794826;78;21016;-69
2021/10/11 13:17:41;;;;;;;4.50;4.10;;;;;;;25.38;31.71;100264.36;1791150;78;21045;-68
2021/10/11 13:20:08;;;;;;;4.62;4.15;;;;;;;25.27;31.83;100263.44;1791768;78;21043;-70
2021/10/11 13:22:34;;;;;;;5.20;4.65;;;;;;;25.15;31.97;100259.45;1798134;78;21120;-69
2021/10/11 13:25:00;;;;;;;4.55;4.12;;;;;;;25.04;32.07;100262.56;1782934;79;21531;-68
2021/10/11 13:27:26;;;;;;;4.10;3.70;;;;;;;24.95;32.16;100259.16;1777394;80;21032;-68
2021/10/11 13:33:24;;;;;;;4.62;4.22;;;;;;;24.80;32.29;100252.97;1785457;80;20992;-68
2021/10/11 14:26:36;;;;;;;3.47;3.17;;;;;;;23.07;33.69;100209.75;1768999;78;21067;-67
2021/10/11 14:29:14;;;;;;;3.80;3.45;;;;;;;23.00;33.78;100212.27;1769970;79;21145;-68
2021/10/11 14:32:04;;;;;;;4.05;3.70;;;;;;;22.92;33.80;100216.17;1769837;78;21091;-66
2021/10/11 15:51:45;;;;;;;3.52;3.22;;;;;;;22.71;33.98;100212.19;1756819;81;21120;-66
2021/10/11 16:04:12;;;;;;;11.80;7.47;;;;;;;20.37;35.39;100172.61;1766008;79;21858;-63
2021/10/11 16:06:38;;;;;;;17.05;7.92;;;;;;;20.30;35.49;100173.19;1790773;79;21075;-66
2021/10/11 16:09:05;;;;;;;14.07;7.92;;;;;;;20.25;35.55;100166.30;1789814;78;21103;-63
2021/10/11 16:11:31;;;;;;;21.90;8.25;;;;;;;20.17;35.63;100168.23;1792297;79;21673;-61
2021/10/11 16:13:58;;;;;;;13.72;8.48;;;;;;;20.12;35.68;100168.58;1789514;79;21035;-62
2021/10/11 16:16:24;;;;;;;12.35;7.78;;;;;;;20.06;35.75;100164.89;1791809;78;21208;-63
2021/10/11 16:18:50;;;;;;;13.25;8.08;;;;;;;20.01;35.82;100164.22;1792738;79;21031;-65
2021/10/11 16:21:17;;;;;;;15.32;7.78;;;;;;;19.98;35.87;100157.09;1796267;78;21106;-62
2021/10/11 16:23:43;;;;;;;10.40;8.15;;;;;;;19.92;35.94;100157.44;1761281;80;21603;-61
2021/10/11 16:26:12;;;;;;;24.10;9.90;;;;;;;19.88;35.99;100154.88;1795088;78;21429;-61
2021/10/11 16:28:38;;;;;;;13.65;9.55;;;;;;;19.84;36.06;100157.19;1801334;78;21131;-62
2021/10/11 16:31:10;;;;;;;13.30;8.18;;;;;;;19.79;36.09;100159.70;1768765;79;21538;-63
2021/10/11 16:33:37;;;;;;;10.48;8.45;;;;;;;19.75;36.16;100153.63;1769830;79;21127;-64
2021/10/11 16:36:07;;;;;;;15.13;9.65;;;;;;;19.70;36.24;100149.37;1800112;78;21067;-62
2021/10/11 16:38:33;;;;;;;19.95;9.75;;;;;;;19.66;36.29;100148.98;1760900;80;21017;-64
2021/10/11 16:41:01;;;;;;;11.78;8.85;;;;;;;19.60;36.37;100145.28;1789272;78;21291;-63
2021/10/11 16:43:28;;;;;;;15.68;10.03;;;;;;;19.55;36.45;100146.47;1748571;79;21076;-65
2021/10/11 16:45:54;;;;;;;17.40;9.63;;;;;;;19.50;36.51;100138.20;1790667;78;21048;-62
2021/10/11 16:48:20;;;;;;;15.88;10.25;;;;;;;19.45;36.60;100131.28;1802155;78;21092;-63
2021/10/11 16:50:46;;;;;;;17.10;11.60;;;;;;;19.42;36.64;100136.59;1782782;79;21070;-63
2021/10/11 16:53:13;;;;;;;15.45;10.30;;;;;;;19.37;36.71;100130.20;1792457;78;21138;-63
2021/10/11 16:55:39;;;;;;;16.12;9.85;;;;;;;19.33;36.78;100129.80;1768257;78;21512;-63
2021/10/11 16:58:06;;;;;;;18.75;11.10;;;;;;;19.30;36.82;100134.83;1790517;79;20997;-64
2021/10/11 17:00:33;;;;;;;21.42;10.53;;;;;;;19.25;36.88;100126.84;1792104;79;21145;-64
2021/10/11 17:02:59;;;;;;;22.65;10.10;;;;;;;19.21;36.97;100126.16;1784562;79;21072;-63
2021/10/11 17:05:25;;;;;;;15.85;11.05;;;;;;;19.17;37.04;100128.98;1792175;79;21129;-65
2021/10/11 17:07:58;;;;;;;17.90;10.68;;;;;;;19.12;37.09;100122.87;1790056;79;21103;-62
2021/10/11 17:10:24;;;;;;;15.05;11.48;;;;;;;19.07;37.17;100120.02;1772651;80;21025;-63
2021/10/11 17:12:51;;;;;;;21.27;11.25;;;;;;;19.04;37.25;100128.02;1780266;78;21048;-65
2021/10/11 17:15:18;;;;;;;21.97;11.80;;;;;;;19.00;37.32;100120.03;1765230;78;21044;-65
2021/10/11 17:17:47;;;;;;;18.20;11.05;;;;;;;18.96;37.38;100124.20;1783000;78;21121;-64
2021/10/11 17:20:16;;;;;;;23.55;12.35;;;;;;;18.94;37.46;100122.77;1776701;79;21012;-62
2021/10/11 17:22:44;;;;;;;22.15;12.07;;;;;;;18.89;37.49;100122.07;1785990;78;21098;-61
2021/10/11 17:25:12;;;;;;;22.25;11.90;;;;;;;18.85;37.54;100122.16;1784002;78;21008;-63
2021/10/11 17:29:06;;;;;;;27.20;13.62;;;;;;;18.84;37.64;100114.62;1786580;78;22735;-62
2021/10/11 17:31:33;;;;;;;20.37;13.38;;;;;;;18.75;37.71;100114.52;1754028;81;21021;-62
2021/10/11 17:34:00;;;;;;;21.20;13.08;;;;;;;18.73;37.75;100123.84;1751279;80;21083;-62
2021/10/11 17:36:26;;;;;;;24.80;14.28;;;;;;;18.70;37.78;100122.91;1753007;80;21033;-62
2021/10/11 17:38:52;;;;;;;24.10;13.50;;;;;;;18.66;37.85;100113.94;1750603;80;21588;-63
2021/10/11 17:41:19;;;;;;;22.37;13.80;;;;;;;18.62;37.90;100114.05;1752293;80;20988;-62
2021/10/11 17:43:48;;;;;;;28.87;15.00;;;;;;;18.60;37.90;100113.44;1749754;81;21077;-65
2021/10/11 17:46:14;;;;;;;22.52;14.73;;;;;;;18.57;37.97;100113.86;1752654;80;21129;-62
2021/10/11 17:48:40;;;;;;;25.72;15.60;;;;;;;18.54;38.01;100104.84;1748750;80;21068;-62
2021/10/11 17:51:07;;;;;;;20.08;15.45;;;;;;;18.52;38.05;100110.96;1728948;81;21069;-63
2021/10/11 17:53:34;;;;;;;31.90;16.55;;;;;;;18.49;38.07;100099.82;1750233;80;21044;-63
2021/10/11 17:56:01;;;;;;;24.63;16.17;;;;;;;18.46;38.10;100106.43;1753675;80;21108;-64
2021/10/11 17:58:30;;;;;;;23.90;16.67;;;;;;;18.42;38.16;100095.27;1745655;80;22334;-62
2021/10/11 18:00:56;;;;;;;31.65;18.07;;;;;;;18.41;38.19;100100.88;1747938;80;21065;-62
2021/10/11 18:03:22;;;;;;;28.77;17.62;;;;;;;18.39;38.23;100090.84;1754809;80;21541;-62
2021/10/11 18:05:49;;;;;;;31.57;17.87;;;;;;;18.35;38.27;100088.25;1746430;81;21053;-63
2021/10/11 18:08:15;;;;;;;27.45;16.95;;;;;;;18.33;38.29;100091.66;1756815;80;21018;-63
2021/10/11 18:10:45;;;;;;;30.32;18.92;;;;;;;18.30;38.31;100088.07;1749244;81;21053;-62
2021/10/11 18:13:11;;;;;;;27.60;18.73;;;;;;;18.27;38.35;100090.14;1747033;80;21030;-63
2021/10/11 18:15:38;;;;;;;31.12;19.20;;;;;;;18.25;38.37;100092.71;1746157;81;21084;-65
2021/10/11 18:18:07;;;;;;;26.37;18.23;;;;;;;18.21;38.38;100093.65;1753380;80;21186;-64
2021/10/11 18:20:34;;;;;;;29.00;18.92;;;;;;;18.19;38.46;100092.21;1749008;80;21017;-64
2021/10/11 18:23:00;;;;;;;29.92;19.37;;;;;;;18.16;38.48;100090.78;1752311;80;21110;-62
2021/10/11 18:25:27;;;;;;;25.02;19.42;;;;;;;18.14;38.50;100083.45;1765530;80;20997;-63
2021/10/11 18:27:54;;;;;;;27.30;20.12;;;;;;;18.11;38.53;100087.88;1750404;80;21049;-63
2021/10/11 18:30:20;;;;;;;29.70;19.67;;;;;;;18.08;38.57;100090.48;1765831;80;21045;-63
2021/10/11 18:32:46;;;;;;;40.20;28.00;;;;;;;18.05;38.62;100087.38;1740334;80;21128;-65
2021/10/11 18:35:13;;;;;;;58.15;43.15;;;;;;;18.02;38.62;100084.60;1749152;80;22051;-64
2021/10/11 18:37:39;;;;;;;47.35;35.95;;;;;;;18.01;38.64;100082.11;1748846;80;21081;-64
2021/10/11 18:40:11;;;;;;;48.50;33.67;;;;;;;17.99;38.69;100076.12;1749452;80;21085;-65
2021/10/11 18:42:36;;;;;;;43.40;31.45;;;;;;;17.97;38.72;100078.20;1749387;80;21092;-64
2021/10/11 18:45:03;;;;;;;43.28;29.55;;;;;;;17.94;38.73;100074.56;1751645;80;21647;-62
2021/10/11 18:47:30;;;;;;;40.60;29.52;;;;;;;17.92;38.74;100072.60;1750727;81;21095;-63
2021/10/11 18:49:56;;;;;;;42.65;29.60;;;;;;;17.89;38.77;100075.20;1752005;81;21104;-62
2021/10/11 18:52:22;;;;;;;46.42;29.52;;;;;;;17.87;38.80;100075.41;1746057;80;21097;-63
2021/10/11 18:54:49;;;;;;;39.20;28.85;;;;;;;17.85;38.83;100078.00;1751142;81;21535;-62
2021/10/11 18:57:16;;;;;;;39.60;27.50;;;;;;;17.83;38.83;100075.48;1748427;81;20998;-63
2021/10/11 18:59:42;;;;;;;42.62;27.05;;;;;;;17.82;38.85;100074.34;1750536;80;21093;-62
2021/10/11 19:02:08;;;;;;;42.23;27.15;;;;;;;17.79;38.88;100080.11;1752718;81;21078;-62
2021/10/11 19:04:36;;;;;;;43.85;26.40;;;;;;;17.77;38.89;100075.47;1739412;81;21015;-63
2021/10/11 19:07:02;;;;;;;40.52;25.50;;;;;;;17.75;38.90;100066.78;1748995;80;21099;-70